Time;durP1;ratioP1;P1;durP2;ratioP2;P2;SDS_P1;SDS_P2;PMS_P1;PMS_P2;Temp;Humidity;BMP_temperature;BMP_pressure;BME280_temperature;BME280_humidity;BME280_pressure;Samples;Min_cycle;Max_cycle;Signal;HPM_P1;HPM_P2
2021/12/04 00:01:46;;;;;;;54.90;25.30;;;;;;;;;;6068247;23;20018;-94
2021/12/04 00:04:13;;;;;;;59.92;26.33;;;;;;;;;;6067970;23;20510;-95
2021/12/04 00:06:40;;;;;;;53.42;25.38;;;;;;;;;;6044848;23;20467;-93
2021/12/04 00:09:07;;;;;;;56.75;25.23;;;;;;;;;;6068294;23;20018;-91
2021/12/04 00:11:36;;;;;;;58.30;25.48;;;;;;;;;;6068317;23;20081;-93
2021/12/04 00:14:03;;;;;;;60.67;25.80;;;;;;;;;;6044156;23;20114;-93
2021/12/04 00:16:29;;;;;;;55.95;25.42;;;;;;;;;;6044283;23;20022;-96
2021/12/04 00:18:55;;;;;;;56.75;25.75;;;;;;;;;;6043422;23;20049;-92
2021/12/04 00:21:21;;;;;;;61.15;25.52;;;;;;;;;;6068179;23;20029;-92
2021/12/04 00:23:47;;;;;;;63.33;25.67;;;;;;;;;;6043967;23;20050;-93
2021/12/04 00:26:13;;;;;;;56.28;23.63;;;;;;;;;;6044265;23;20126;-94
2021/12/04 00:28:39;;;;;;;61.22;25.10;;;;;;;;;;6044202;23;20050;-94
2021/12/04 00:31:08;;;;;;;53.08;25.73;;;;;;;;;;6044357;23;20022;-93
2021/12/04 00:33:36;;;;;;;62.17;26.83;;;;;;;;;;6044106;23;20014;-93
2021/12/04 00:36:06;;;;;;;57.80;25.77;;;;;;;;;;6068110;23;20022;-94
2021/12/04 00:49:18;;;;;;;62.67;24.02;;;;;;;;;;6067554;23;20120;-94
2021/12/04 00:51:50;;;;;;;55.13;23.98;;;;;;;;;;6043970;23;20022;-93
2021/12/04 00:54:17;;;;;;;58.13;22.58;;;;;;;;;;6043848;23;20019;-94
2021/12/04 00:56:44;;;;;;;59.97;25.20;;;;;;;;;;6043783;23;20022;-93
2021/12/04 00:59:11;;;;;;;70.45;24.33;;;;;;;;;;6043886;23;20450;-93
2021/12/04 01:01:38;;;;;;;62.15;25.30;;;;;;;;;;6043572;23;20023;-92
2021/12/04 01:04:05;;;;;;;67.22;26.08;;;;;;;;;;6043181;23;20154;-93
2021/12/04 01:06:31;;;;;;;74.65;24.30;;;;;;;;;;6044067;23;20053;-94
2021/12/04 01:08:56;;;;;;;56.03;25.08;;;;;;;;;;6067042;23;20023;-93
2021/12/04 01:11:23;;;;;;;57.72;23.40;;;;;;;;;;6043777;23;20031;-93
2021/12/04 01:13:49;;;;;;;54.95;23.02;;;;;;;;;;6043653;23;20018;-93
2021/12/04 01:16:16;;;;;;;57.75;23.33;;;;;;;;;;6043845;23;20061;-93
2021/12/04 01:18:43;;;;;;;63.95;23.98;;;;;;;;;;6067010;23;20018;-93
2021/12/04 01:21:10;;;;;;;59.38;22.48;;;;;;;;;;6044296;23;20054;-93
2021/12/04 01:23:36;;;;;;;50.50;21.23;;;;;;;;;;6043881;23;20054;-94
2021/12/04 01:26:02;;;;;;;64.47;22.88;;;;;;;;;;6043266;23;20018;-93
2021/12/04 01:28:28;;;;;;;52.88;21.25;;;;;;;;;;6043977;23;20018;-96
2021/12/04 01:30:54;;;;;;;51.00;21.73;;;;;;;;;;6066959;23;20018;-92
2021/12/04 01:33:20;;;;;;;53.08;20.45;;;;;;;;;;6067809;23;20043;-93
2021/12/04 01:35:46;;;;;;;50.58;20.90;;;;;;;;;;6043177;23;20594;-93
2021/12/04 01:38:12;;;;;;;49.05;20.77;;;;;;;;;;6043643;23;20054;-93
2021/12/04 01:40:38;;;;;;;44.13;19.50;;;;;;;;;;6067360;23;20081;-95
2021/12/04 01:43:05;;;;;;;45.88;20.23;;;;;;;;;;6067392;23;20023;-93
2021/12/04 01:45:31;;;;;;;45.45;20.17;;;;;;;;;;6043122;23;20467;-92
2021/12/04 01:48:01;;;;;;;43.08;19.23;;;;;;;;;;6042840;23;20036;-94
2021/12/04 01:50:28;;;;;;;38.03;18.20;;;;;;;;;;6043241;23;20080;-92
2021/12/04 01:52:56;;;;;;;42.95;19.77;;;;;;;;;;6043258;23;20106;-94
2021/12/04 01:55:29;;;;;;;40.70;18.77;;;;;;;;;;6043416;23;20530;-93
2021/12/04 01:57:55;;;;;;;39.30;18.25;;;;;;;;;;6043292;23;20018;-94
2021/12/04 02:00:21;;;;;;;38.38;17.95;;;;;;;;;;6042877;23;20406;-95
2021/12/04 02:02:48;;;;;;;37.60;17.92;;;;;;;;;;6066481;23;20026;-92
2021/12/04 02:05:14;;;;;;;39.15;17.77;;;;;;;;;;6067227;23;20501;-94
2021/12/04 02:07:40;;;;;;;35.60;17.67;;;;;;;;;;6043171;23;20019;-94
2021/12/04 02:10:07;;;;;;;42.45;18.98;;;;;;;;;;6067419;23;20025;-94
2021/12/04 02:12:33;;;;;;;36.20;17.15;;;;;;;;;;6043624;23;20101;-94
2021/12/04 02:14:59;;;;;;;40.38;18.83;;;;;;;;;;6042658;23;20026;-93
2021/12/04 02:17:25;;;;;;;34.63;17.02;;;;;;;;;;6043341;23;20011;-95
2021/12/04 02:19:51;;;;;;;33.22;17.73;;;;;;;;;;6067242;23;20480;-94
2021/12/04 02:22:17;;;;;;;35.72;17.88;;;;;;;;;;6067341;23;20017;-93
2021/12/04 02:24:43;;;;;;;32.25;17.48;;;;;;;;;;6043142;23;20022;-93
2021/12/04 02:27:12;;;;;;;37.53;18.08;;;;;;;;;;6043556;23;20534;-93
2021/12/04 02:29:46;;;;;;;36.90;18.73;;;;;;;;;;6067104;23;20045;-93
2021/12/04 02:32:12;;;;;;;37.38;18.80;;;;;;;;;;6043488;23;20101;-93
2021/12/04 02:34:39;;;;;;;34.55;17.73;;;;;;;;;;6067360;23;20042;-92
2021/12/04 02:37:07;;;;;;;40.85;19.55;;;;;;;;;;6043207;23;20101;-92
2021/12/04 02:39:35;;;;;;;40.50;18.98;;;;;;;;;;6067249;23;20077;-93
2021/12/04 02:42:02;;;;;;;36.65;19.63;;;;;;;;;;6042974;23;20101;-93
2021/12/04 02:44:36;;;;;;;38.17;18.65;;;;;;;;;;6042441;23;20022;-95
2021/12/04 02:47:01;;;;;;;37.55;18.60;;;;;;;;;;6043023;23;20034;-95
2021/12/04 02:49:28;;;;;;;37.92;19.33;;;;;;;;;;6043410;23;20040;-93
2021/12/04 02:51:54;;;;;;;39.22;18.95;;;;;;;;;;6043043;23;20059;-95
2021/12/04 02:54:20;;;;;;;35.05;18.63;;;;;;;;;;6067246;23;20093;-95
2021/12/04 02:56:46;;;;;;;34.50;18.50;;;;;;;;;;6042847;23;20501;-95
2021/12/04 02:59:13;;;;;;;37.00;17.67;;;;;;;;;;6066856;23;20014;-95
2021/12/04 03:01:40;;;;;;;34.42;17.98;;;;;;;;;;6043022;23;20022;-93
2021/12/04 03:04:07;;;;;;;37.77;18.00;;;;;;;;;;6067291;23;20463;-94
2021/12/04 03:06:37;;;;;;;35.83;17.83;;;;;;;;;;6043218;23;20025;-93
2021/12/04 03:09:04;;;;;;;35.30;17.80;;;;;;;;;;6043177;23;20023;-93
2021/12/04 03:11:30;;;;;;;31.92;16.10;;;;;;;;;;6043143;23;20073;-93
2021/12/04 03:13:56;;;;;;;38.67;17.33;;;;;;;;;;6042578;23;20050;-94
2021/12/04 03:16:24;;;;;;;32.67;16.90;;;;;;;;;;6043019;23;20018;-94
2021/12/04 03:18:50;;;;;;;33.58;16.63;;;;;;;;;;6042851;23;20018;-94
2021/12/04 03:21:16;;;;;;;33.60;16.70;;;;;;;;;;6067110;23;20469;-93
2021/12/04 03:23:52;;;;;;;31.48;16.08;;;;;;;;;;6042982;23;20021;-91
2021/12/04 03:26:19;;;;;;;30.35;15.75;;;;;;;;;;6066767;23;20090;-91
2021/12/04 03:28:45;;;;;;;34.63;17.27;;;;;;;;;;6066444;23;20473;-92
2021/12/04 03:32:20;;;;;;;31.55;16.67;;;;;;;;;;6043299;23;20050;-91
2021/12/04 03:42:22;;;;;;;34.63;16.00;;;;;;;;;;6068069;23;20097;-92
2021/12/04 03:44:48;;;;;;;34.53;15.13;;;;;;;;;;6044193;23;20034;-91
2021/12/04 03:47:14;;;;;;;34.97;16.13;;;;;;;;;;6044471;23;20411;-92
2021/12/04 03:49:40;;;;;;;36.08;15.50;;;;;;;;;;6068679;23;20014;-93
2021/12/04 03:52:07;;;;;;;32.42;15.77;;;;;;;;;;6044724;23;20018;-92
2021/12/04 03:54:33;;;;;;;33.50;15.23;;;;;;;;;;6044657;23;20074;-92
2021/12/04 03:57:05;;;;;;;34.03;16.48;;;;;;;;;;6043964;23;20057;-92
2021/12/04 03:59:41;;;;;;;34.22;15.73;;;;;;;;;;6044489;23;20074;-92
2021/12/04 04:02:08;;;;;;;34.55;17.17;;;;;;;;;;6068191;23;20093;-91
2021/12/04 04:04:34;;;;;;;32.03;15.48;;;;;;;;;;6068365;23;20018;-91
2021/12/04 04:07:00;;;;;;;35.65;16.02;;;;;;;;;;6044265;23;20571;-92
2021/12/04 04:09:27;;;;;;;34.22;15.88;;;;;;;;;;6068206;23;20023;-92
2021/12/04 04:11:53;;;;;;;35.28;15.82;;;;;;;;;;6067700;23;20049;-91
2021/12/04 04:14:19;;;;;;;33.83;15.82;;;;;;;;;;6068202;23;20022;-92
2021/12/04 04:16:45;;;;;;;33.60;15.82;;;;;;;;;;6067993;23;20021;-92
2021/12/04 04:19:11;;;;;;;32.72;15.90;;;;;;;;;;6068542;23;20413;-91
2021/12/04 04:21:39;;;;;;;32.50;15.80;;;;;;;;;;6043971;23;20024;-92
2021/12/04 04:24:16;;;;;;;34.78;16.05;;;;;;;;;;6043995;23;20018;-92
2021/12/04 04:26:43;;;;;;;31.67;14.95;;;;;;;;;;6043569;23;20050;-92
2021/12/04 04:29:10;;;;;;;29.30;15.43;;;;;;;;;;6044505;23;20022;-92
2021/12/04 04:31:43;;;;;;;35.72;16.13;;;;;;;;;;6044142;23;20351;-91
2021/12/04 04:34:09;;;;;;;34.60;16.00;;;;;;;;;;6044456;23;20024;-90
2021/12/04 05:11:59;;;;;;;34.33;15.80;;;;;;;;;;5980911;23;20059;-92
2021/12/04 05:14:25;;;;;;;34.65;15.75;;;;;;;;;;5981553;23;20020;-92
2021/12/04 05:16:59;;;;;;;33.85;15.43;;;;;;;;;;5980761;23;20445;-94
2021/12/04 05:19:52;;;;;;;31.75;15.68;;;;;;;;;;5981593;23;20020;-92
2021/12/04 05:22:13;;;;;;;35.17;15.50;;;;;;;;;;5980784;23;20440;-93
2021/12/04 05:24:39;;;;;;;33.65;15.55;;;;;;;;;;5980480;23;20027;-92
2021/12/04 05:27:05;;;;;;;32.95;15.38;;;;;;;;;;5980989;23;20152;-92
2021/12/04 05:29:32;;;;;;;30.73;15.82;;;;;;;;;;5981527;23;20012;-93
2021/12/04 05:31:57;;;;;;;34.80;16.05;;;;;;;;;;5980878;23;20456;-92
2021/12/04 05:34:24;;;;;;;37.42;15.95;;;;;;;;;;5981710;23;20026;-93
2021/12/04 05:36:50;;;;;;;32.17;15.90;;;;;;;;;;6005775;23;20033;-94
2021/12/04 05:39:16;;;;;;;34.63;15.90;;;;;;;;;;6042985;23;20023;-93
2021/12/04 05:41:42;;;;;;;33.78;16.33;;;;;;;;;;6043390;23;20017;-92
2021/12/04 05:44:09;;;;;;;42.45;17.05;;;;;;;;;;6042421;23;20105;-92
2021/12/04 05:46:53;;;;;;;35.38;16.38;;;;;;;;;;6042655;23;20022;-91
2021/12/04 05:56:46;;;;;;;35.38;16.23;;;;;;;;;;6066756;23;20106;-94
2021/12/04 05:59:13;;;;;;;40.17;17.52;;;;;;;;;;6067217;23;20018;-93
2021/12/04 06:01:39;;;;;;;36.28;16.65;;;;;;;;;;6067277;23;20026;-92
2021/12/04 06:04:05;;;;;;;41.03;17.98;;;;;;;;;;6043313;23;20023;-94
2021/12/04 06:06:31;;;;;;;38.25;16.92;;;;;;;;;;6042810;23;20065;-94
2021/12/04 06:08:57;;;;;;;36.83;16.60;;;;;;;;;;6043232;23;20015;-94
2021/12/04 06:11:23;;;;;;;38.38;16.90;;;;;;;;;;6043543;23;20411;-93
2021/12/04 06:13:49;;;;;;;39.40;17.17;;;;;;;;;;6042691;23;20018;-94
2021/12/04 06:16:16;;;;;;;40.15;16.52;;;;;;;;;;6043417;23;20015;-93
2021/12/04 06:18:46;;;;;;;37.40;16.77;;;;;;;;;;6043160;23;20025;-93
2021/12/04 06:23:57;;;;;;;39.05;16.33;;;;;;;;;;6066797;23;20019;-93
2021/12/04 06:26:23;;;;;;;44.83;17.50;;;;;;;;;;6043067;23;20018;-93
2021/12/04 06:28:49;;;;;;;39.72;17.05;;;;;;;;;;6043300;23;20022;-93
2021/12/04 06:31:16;;;;;;;39.70;16.63;;;;;;;;;;6067217;23;20093;-94
2021/12/04 06:33:42;;;;;;;44.45;17.90;;;;;;;;;;6043202;23;20025;-92
2021/12/04 06:36:08;;;;;;;42.55;18.13;;;;;;;;;;6041471;23;20014;-93
2021/12/04 06:38:34;;;;;;;43.72;17.45;;;;;;;;;;6043481;23;20459;-94
2021/12/04 06:41:00;;;;;;;44.53;18.23;;;;;;;;;;6042836;23;20014;-94
2021/12/04 06:43:27;;;;;;;44.17;18.30;;;;;;;;;;6043434;23;20554;-93
2021/12/04 06:45:58;;;;;;;47.83;17.75;;;;;;;;;;6042860;23;20332;-93
2021/12/04 06:48:32;;;;;;;49.10;20.17;;;;;;;;;;6043790;23;20050;-88
2021/12/04 06:51:04;;;;;;;45.13;18.70;;;;;;;;;;6042341;23;20026;-89
2021/12/04 06:53:37;;;;;;;49.35;18.73;;;;;;;;;;6042905;23;20069;-89
2021/12/04 06:56:06;;;;;;;46.42;17.65;;;;;;;;;;6038977;23;20018;-91
2021/12/04 06:58:32;;;;;;;49.72;18.67;;;;;;;;;;6041008;23;20015;-91
2021/12/04 07:00:58;;;;;;;55.67;18.65;;;;;;;;;;6064014;23;20458;-92
2021/12/04 07:03:24;;;;;;;52.15;17.38;;;;;;;;;;6039922;23;20014;-92
2021/12/04 07:05:51;;;;;;;61.08;19.50;;;;;;;;;;6064074;23;20514;-91
2021/12/04 07:08:17;;;;;;;52.05;18.83;;;;;;;;;;6065402;23;20036;-90
2021/12/04 07:10:43;;;;;;;63.85;18.35;;;;;;;;;;6066317;23;20022;-91
2021/12/04 07:13:09;;;;;;;58.45;18.63;;;;;;;;;;6042123;23;20034;-93
2021/12/04 07:15:35;;;;;;;64.63;18.90;;;;;;;;;;6041607;23;20056;-91
2021/12/04 07:18:01;;;;;;;64.28;18.33;;;;;;;;;;6065560;23;20018;-90
2021/12/04 07:20:28;;;;;;;70.82;19.92;;;;;;;;;;6041597;23;20023;-91
2021/12/04 07:22:54;;;;;;;67.18;18.40;;;;;;;;;;6040996;23;20042;-91
2021/12/04 07:25:20;;;;;;;67.57;17.70;;;;;;;;;;6042973;23;20045;-92
2021/12/04 07:27:47;;;;;;;56.45;17.70;;;;;;;;;;6043249;23;20049;-92
2021/12/04 07:30:13;;;;;;;66.90;18.15;;;;;;;;;;6043209;23;20067;-92
2021/12/04 07:32:40;;;;;;;59.90;17.65;;;;;;;;;;6043149;23;20059;-91
2021/12/04 07:35:06;;;;;;;58.75;18.25;;;;;;;;;;6042013;23;20026;-89
2021/12/04 07:37:32;;;;;;;55.42;16.50;;;;;;;;;;6041037;23;20354;-89
2021/12/04 07:39:58;;;;;;;47.67;15.30;;;;;;;;;;6040817;23;20029;-89
2021/12/04 07:42:24;;;;;;;46.60;16.83;;;;;;;;;;6042143;23;20014;-91
2021/12/04 07:44:51;;;;;;;50.15;15.35;;;;;;;;;;6041569;23;20018;-90
2021/12/04 07:47:17;;;;;;;48.58;15.93;;;;;;;;;;6042415;23;20019;-89
2021/12/04 07:49:43;;;;;;;42.33;14.88;;;;;;;;;;6041718;23;20122;-90
2021/12/04 07:52:10;;;;;;;41.88;15.07;;;;;;;;;;6042851;23;20284;-90
2021/12/04 07:54:37;;;;;;;41.58;14.43;;;;;;;;;;6042222;23;20486;-88
2021/12/04 07:57:03;;;;;;;39.05;13.80;;;;;;;;;;6042267;23;20014;-91
2021/12/04 07:59:29;;;;;;;35.90;14.07;;;;;;;;;;6043180;23;20044;-92
2021/12/04 08:01:56;;;;;;;44.35;14.73;;;;;;;;;;6042356;23;20065;-90
2021/12/04 08:04:23;;;;;;;37.97;14.50;;;;;;;;;;6042609;23;20023;-90
2021/12/04 08:06:49;;;;;;;41.45;15.27;;;;;;;;;;6043683;23;20030;-91
2021/12/04 08:09:15;;;;;;;37.25;13.82;;;;;;;;;;6043083;23;20018;-89
2021/12/04 08:11:41;;;;;;;39.92;15.68;;;;;;;;;;6043261;23;20019;-91
2021/12/04 08:14:07;;;;;;;42.50;16.05;;;;;;;;;;6043347;23;20097;-91
2021/12/04 08:16:33;;;;;;;42.67;16.55;;;;;;;;;;6043161;23;20076;-91
2021/12/04 08:19:00;;;;;;;38.35;14.75;;;;;;;;;;6042535;23;20018;-91
2021/12/04 08:21:26;;;;;;;43.05;16.73;;;;;;;;;;6042864;23;20029;-92
2021/12/04 08:23:52;;;;;;;44.55;17.02;;;;;;;;;;6067379;23;20049;-92
2021/12/04 08:26:19;;;;;;;49.05;18.05;;;;;;;;;;6043513;23;20073;-92
2021/12/04 08:28:46;;;;;;;50.08;17.25;;;;;;;;;;6043425;23;20014;-91
2021/12/04 08:31:14;;;;;;;49.13;17.85;;;;;;;;;;6043165;23;20026;-92
2021/12/04 08:33:40;;;;;;;54.67;18.42;;;;;;;;;;6043007;23;20023;-91
2021/12/04 08:36:06;;;;;;;51.40;18.45;;;;;;;;;;6043148;23;20046;-91
2021/12/04 08:38:33;;;;;;;53.75;19.25;;;;;;;;;;6043027;23;20022;-90
2021/12/04 08:40:59;;;;;;;47.78;18.38;;;;;;;;;;6042932;23;20026;-92
2021/12/04 08:43:27;;;;;;;52.45;18.33;;;;;;;;;;6043419;23;20023;-90
2021/12/04 08:45:53;;;;;;;50.35;18.02;;;;;;;;;;6041629;23;20025;-92
2021/12/04 08:48:19;;;;;;;56.28;20.20;;;;;;;;;;6040685;23;20583;-91
2021/12/04 08:50:45;;;;;;;53.30;18.98;;;;;;;;;;6042883;23;20015;-91
2021/12/04 08:53:12;;;;;;;60.60;20.05;;;;;;;;;;6042561;23;20053;-91
2021/12/04 08:55:39;;;;;;;62.90;20.23;;;;;;;;;;6040742;23;20019;-91
2021/12/04 08:58:06;;;;;;;63.08;20.98;;;;;;;;;;6040645;23;20445;-92
2021/12/04 09:00:36;;;;;;;65.75;22.30;;;;;;;;;;6041693;23;20414;-91
2021/12/04 09:03:03;;;;;;;63.80;21.88;;;;;;;;;;6042000;23;20030;-90
2021/12/04 09:05:29;;;;;;;62.88;21.52;;;;;;;;;;6042712;23;20101;-91
2021/12/04 09:07:55;;;;;;;65.97;22.42;;;;;;;;;;6042783;23;20328;-90
2021/12/04 09:10:22;;;;;;;64.43;20.77;;;;;;;;;;6042725;23;20161;-90
2021/12/04 09:12:49;;;;;;;60.20;20.20;;;;;;;;;;6042504;23;20026;-90
2021/12/04 09:15:16;;;;;;;54.47;19.50;;;;;;;;;;6066366;23;20474;-88
2021/12/04 09:17:42;;;;;;;64.50;20.38;;;;;;;;;;6042322;23;20026;-88
2021/12/04 09:20:08;;;;;;;55.83;19.35;;;;;;;;;;6043028;23;20014;-89
2021/12/04 09:22:36;;;;;;;58.70;19.25;;;;;;;;;;6042613;23;20049;-88
2021/12/04 09:25:09;;;;;;;59.70;19.15;;;;;;;;;;6042567;23;20025;-90
2021/12/04 09:27:57;;;;;;;59.50;19.30;;;;;;;;;;6042927;23;20029;-90
2021/12/04 10:19:19;;;;;;;56.50;19.05;;;;;;;;;;6066878;23;20026;-92
2021/12/04 10:21:57;;;;;;;59.97;19.38;;;;;;;;;;6042137;23;20058;-91
2021/12/04 10:34:51;;;;;;;54.67;18.88;;;;;;;;;;6065700;23;20026;-92
2021/12/04 10:37:23;;;;;;;60.60;19.00;;;;;;;;;;6042781;23;20022;-92
2021/12/04 10:39:49;;;;;;;58.47;17.90;;;;;;;;;;6042000;23;20198;-92
2021/12/04 10:42:20;;;;;;;75.32;21.25;;;;;;;;;;6042826;23;20022;-90
2021/12/04 10:44:51;;;;;;;71.65;21.73;;;;;;;;;;6043676;23;20451;-91
2021/12/04 10:47:23;;;;;;;63.70;22.08;;;;;;;;;;6044592;23;20403;-91
2021/12/04 10:58:20;;;;;;;70.33;20.97;;;;;;;;;;6067655;23;20019;-92
2021/12/04 11:25:56;;;;;;;76.00;22.20;;;;;;;;;;6067920;23;20041;-93
2021/12/04 11:28:44;;;;;;;70.82;22.15;;;;;;;;;;6044177;23;20015;-93
2021/12/04 11:39:54;;;;;;;79.45;23.27;;;;;;;;;;5980929;23;20433;-92
2021/12/04 11:45:19;;;;;;;86.82;23.13;;;;;;;;;;5980554;23;20027;-91
2021/12/04 11:47:47;;;;;;;79.18;22.52;;;;;;;;;;5980243;23;20547;-91
2021/12/04 11:50:17;;;;;;;103.05;26.92;;;;;;;;;;5980505;23;20027;-91
2021/12/04 11:52:45;;;;;;;92.40;27.98;;;;;;;;;;5980247;23;20023;-92
2021/12/04 11:55:11;;;;;;;102.75;25.80;;;;;;;;;;5980107;23;20561;-89
2021/12/04 11:57:38;;;;;;;102.13;26.90;;;;;;;;;;5981128;23;20024;-92
2021/12/04 12:00:26;;;;;;;113.30;28.73;;;;;;;;;;5980837;23;20020;-92
2021/12/04 12:02:53;;;;;;;111.47;29.20;;;;;;;;;;5979596;23;20027;-87
2021/12/04 12:05:22;;;;;;;128.95;31.83;;;;;;;;;;6033338;23;20458;-86
2021/12/04 12:07:54;;;;;;;118.93;29.20;;;;;;;;;;6041925;23;20018;-87
2021/12/04 12:10:21;;;;;;;129.23;33.08;;;;;;;;;;6042241;23;20029;-89
2021/12/04 12:12:48;;;;;;;124.00;29.23;;;;;;;;;;6043348;23;20065;-90
2021/12/04 12:15:26;;;;;;;124.20;32.25;;;;;;;;;;6067308;23;20037;-91
2021/12/04 12:17:54;;;;;;;146.40;34.50;;;;;;;;;;6042297;23;20022;-90
2021/12/04 12:20:29;;;;;;;156.13;37.03;;;;;;;;;;6042649;23;20010;-90
2021/12/04 12:23:02;;;;;;;159.90;35.60;;;;;;;;;;6042239;23;20022;-91
2021/12/04 12:25:58;;;;;;;149.98;33.30;;;;;;;;;;6066897;23;20116;-90
2021/12/04 12:34:14;;;;;;;185.95;36.88;;;;;;;;;;6067234;23;20105;-90
2021/12/04 12:36:40;;;;;;;162.48;35.63;;;;;;;;;;6067400;23;20395;-91
2021/12/04 12:39:06;;;;;;;161.35;37.80;;;;;;;;;;6043228;23;20513;-90
2021/12/04 12:41:42;;;;;;;154.90;36.55;;;;;;;;;;6043487;23;20014;-91
2021/12/04 12:44:28;;;;;;;162.30;37.47;;;;;;;;;;6043345;23;20595;-91
2021/12/04 12:46:54;;;;;;;154.75;36.72;;;;;;;;;;6042674;23;20053;-91
2021/12/04 12:49:23;;;;;;;145.88;34.38;;;;;;;;;;6043326;23;20030;-91
2021/12/04 12:52:18;;;;;;;121.93;32.45;;;;;;;;;;6042921;23;20054;-91
2021/12/04 12:54:44;;;;;;;116.55;29.90;;;;;;;;;;6024513;23;20026;-90
2021/12/04 12:57:22;;;;;;;115.28;29.92;;;;;;;;;;6042926;23;20068;-91
2021/12/04 13:13:38;;;;;;;117.25;32.53;;;;;;;;;;6067287;23;20019;-91
2021/12/04 13:16:15;;;;;;;123.78;34.55;;;;;;;;;;6066618;23;20015;-91
2021/12/04 13:18:44;;;;;;;128.00;36.10;;;;;;;;;;6042899;23;20339;-91
2021/12/04 13:21:11;;;;;;;138.60;36.05;;;;;;;;;;6066537;23;20022;-91
2021/12/04 13:23:37;;;;;;;157.07;40.13;;;;;;;;;;6066476;23;20304;-90
2021/12/04 13:26:11;;;;;;;151.48;38.38;;;;;;;;;;6042819;23;20105;-91
2021/12/04 13:28:39;;;;;;;148.15;40.30;;;;;;;;;;6043151;23;20025;-91
2021/12/04 13:31:05;;;;;;;147.23;39.55;;;;;;;;;;6042615;23;20022;-91
2021/12/04 13:33:33;;;;;;;145.88;41.38;;;;;;;;;;6066851;23;20019;-91
2021/12/04 13:36:00;;;;;;;162.63;39.67;;;;;;;;;;6042241;23;20463;-90
2021/12/04 13:38:27;;;;;;;160.98;41.80;;;;;;;;;;6042825;23;20025;-91
2021/12/04 13:40:54;;;;;;;167.32;42.83;;;;;;;;;;6042778;23;20077;-90
2021/12/04 13:43:21;;;;;;;173.45;44.63;;;;;;;;;;6042749;23;20041;-91
2021/12/04 13:45:54;;;;;;;171.18;42.53;;;;;;;;;;6042363;23;20023;-90
2021/12/04 13:48:20;;;;;;;165.35;42.70;;;;;;;;;;6042685;23;20015;-91
2021/12/04 13:50:47;;;;;;;178.85;44.38;;;;;;;;;;6042288;23;20125;-91
2021/12/04 13:53:18;;;;;;;163.60;43.13;;;;;;;;;;6043008;23;20097;-91
2021/12/04 13:55:46;;;;;;;159.10;41.75;;;;;;;;;;6042412;23;20025;-91
2021/12/04 13:58:12;;;;;;;178.50;45.05;;;;;;;;;;6042382;23;20018;-90
2021/12/04 14:00:38;;;;;;;152.45;40.42;;;;;;;;;;6042923;23;20018;-91
2021/12/04 14:03:04;;;;;;;149.75;43.47;;;;;;;;;;6042131;23;20053;-90
2021/12/04 14:05:30;;;;;;;161.30;42.38;;;;;;;;;;6042462;23;20023;-90
2021/12/04 14:07:58;;;;;;;161.50;43.50;;;;;;;;;;6042533;23;20022;-91
2021/12/04 14:10:30;;;;;;;154.57;42.05;;;;;;;;;;6042056;23;20300;-91
2021/12/04 14:12:57;;;;;;;165.55;43.75;;;;;;;;;;6042741;23;20467;-91
2021/12/04 14:15:23;;;;;;;173.63;42.88;;;;;;;;;;6042435;23;20061;-91
2021/12/04 14:17:50;;;;;;;170.98;42.67;;;;;;;;;;6042549;23;20022;-91
2021/12/04 14:20:23;;;;;;;149.48;41.35;;;;;;;;;;6042149;23;20019;-91
2021/12/04 14:22:51;;;;;;;179.82;44.63;;;;;;;;;;6042803;23;20022;-91
2021/12/04 14:25:18;;;;;;;183.45;43.78;;;;;;;;;;6042605;23;20029;-91
2021/12/04 14:27:44;;;;;;;176.15;43.15;;;;;;;;;;6066536;23;20018;-91
2021/12/04 14:30:10;;;;;;;176.35;44.83;;;;;;;;;;6065957;23;20097;-91
2021/12/04 14:32:37;;;;;;;175.70;42.75;;;;;;;;;;6066720;23;20018;-91
2021/12/04 14:35:08;;;;;;;192.18;44.95;;;;;;;;;;6042138;23;20058;-90
2021/12/04 14:37:44;;;;;;;182.50;42.08;;;;;;;;;;6066341;23;20112;-91
2021/12/04 14:40:17;;;;;;;188.95;44.30;;;;;;;;;;6042140;23;20022;-90
2021/12/04 14:42:44;;;;;;;178.75;42.95;;;;;;;;;;6042494;23;20117;-91
2021/12/04 14:45:11;;;;;;;175.15;42.75;;;;;;;;;;6042174;23;20041;-91
2021/12/04 14:47:42;;;;;;;180.32;43.45;;;;;;;;;;6042097;23;20473;-91
2021/12/04 14:50:10;;;;;;;164.55;40.95;;;;;;;;;;6042018;23;20037;-91
2021/12/04 14:52:37;;;;;;;185.55;42.58;;;;;;;;;;6042360;23;20331;-91
2021/12/04 14:55:18;;;;;;;186.85;43.83;;;;;;;;;;6042570;23;20022;-91
2021/12/04 14:57:44;;;;;;;182.98;42.88;;;;;;;;;;6066358;23;20018;-91
2021/12/04 15:00:11;;;;;;;169.48;43.63;;;;;;;;;;6042247;23;20154;-91
2021/12/04 15:02:37;;;;;;;167.55;43.85;;;;;;;;;;6042070;23;20463;-92
2021/12/04 15:05:04;;;;;;;170.77;42.88;;;;;;;;;;6065252;23;20018;-91
2021/12/04 15:07:33;;;;;;;167.65;43.83;;;;;;;;;;6042757;23;20447;-91
2021/12/04 15:09:59;;;;;;;168.25;43.00;;;;;;;;;;6065688;23;20049;-91
2021/12/04 15:12:26;;;;;;;167.50;43.90;;;;;;;;;;6042820;23;20018;-90
2021/12/04 15:15:11;;;;;;;180.05;42.13;;;;;;;;;;6042266;23;20054;-91
2021/12/04 15:17:41;;;;;;;186.73;42.75;;;;;;;;;;6041620;23;20022;-90
2021/12/04 15:20:10;;;;;;;183.73;44.72;;;;;;;;;;6042642;23;20018;-91
2021/12/04 15:22:43;;;;;;;191.23;44.45;;;;;;;;;;6042383;23;20395;-91
2021/12/04 15:25:11;;;;;;;189.23;45.72;;;;;;;;;;6042181;23;20022;-91
2021/12/04 15:27:37;;;;;;;173.82;42.35;;;;;;;;;;6042261;23;20030;-90
2021/12/04 15:30:05;;;;;;;191.57;44.17;;;;;;;;;;6043662;23;20014;-91
2021/12/04 15:32:32;;;;;;;191.25;44.88;;;;;;;;;;6043443;23;20100;-91
2021/12/04 15:35:05;;;;;;;182.00;44.25;;;;;;;;;;6068051;23;20025;-91
2021/12/04 15:37:42;;;;;;;192.85;45.10;;;;;;;;;;6068198;23;20350;-91
2021/12/04 15:40:12;;;;;;;202.52;43.80;;;;;;;;;;6044160;23;20022;-91
2021/12/04 15:42:56;;;;;;;192.18;43.97;;;;;;;;;;6044001;23;20049;-91
2021/12/04 15:45:41;;;;;;;;;;;;;;;;;;6044330;23;20105;-91
2021/12/04 15:48:40;;;;;;;210.10;43.97;;;;;;;;;;6043490;23;19948;-91
2021/12/04 15:53:57;;;;;;;190.77;43.47;;;;;;;;;;6067548;23;20057;-91
2021/12/04 15:56:28;;;;;;;190.55;43.60;;;;;;;;;;6043968;23;20037;-91
2021/12/04 15:58:54;;;;;;;230.55;46.05;;;;;;;;;;6067777;23;20347;-91
2021/12/04 16:01:26;;;;;;;207.07;44.65;;;;;;;;;;6067327;23;20023;-92
2021/12/04 16:03:53;;;;;;;205.02;43.47;;;;;;;;;;6043223;23;20019;-91
2021/12/04 16:06:19;;;;;;;202.00;42.47;;;;;;;;;;6043610;23;20029;-91
2021/12/04 16:08:45;;;;;;;189.30;44.05;;;;;;;;;;6043463;23;20053;-91
2021/12/04 16:11:14;;;;;;;201.55;43.40;;;;;;;;;;6043816;23;20018;-91
2021/12/04 16:13:42;;;;;;;199.10;43.08;;;;;;;;;;6043679;23;20022;-91
2021/12/04 16:16:13;;;;;;;180.98;42.20;;;;;;;;;;6043393;23;20045;-91
2021/12/04 16:18:39;;;;;;;188.25;44.15;;;;;;;;;;6043939;23;20093;-91
2021/12/04 16:21:07;;;;;;;204.27;44.83;;;;;;;;;;6043274;23;20093;-91
2021/12/04 16:23:33;;;;;;;202.20;44.33;;;;;;;;;;6043561;23;20370;-91
2021/12/04 16:26:00;;;;;;;193.45;42.50;;;;;;;;;;6043189;23;20022;-91
2021/12/04 16:31:28;;;;;;;195.20;43.00;;;;;;;;;;6067157;23;20045;-92
2021/12/04 16:36:44;;;;;;;180.75;43.85;;;;;;;;;;6067231;23;20037;-92
2021/12/04 16:39:11;;;;;;;182.38;42.53;;;;;;;;;;6067527;23;20019;-91
2021/12/04 16:41:37;;;;;;;170.88;41.13;;;;;;;;;;6043578;23;20350;-92
2021/12/04 16:44:06;;;;;;;179.30;39.67;;;;;;;;;;6043651;23;20018;-91
2021/12/04 16:46:35;;;;;;;181.45;41.85;;;;;;;;;;6066459;23;20070;-91
2021/12/04 16:49:02;;;;;;;169.27;42.42;;;;;;;;;;6067183;23;20030;-91
2021/12/04 16:59:31;;;;;;;168.52;39.83;;;;;;;;;;6067195;23;20022;-91
2021/12/04 17:01:59;;;;;;;152.30;40.45;;;;;;;;;;6042653;23;20026;-91
2021/12/04 17:04:25;;;;;;;148.27;37.92;;;;;;;;;;6043466;23;20023;-92
2021/12/04 17:06:52;;;;;;;144.30;35.90;;;;;;;;;;6042941;23;20022;-91
2021/12/04 17:09:18;;;;;;;138.27;36.20;;;;;;;;;;6067282;23;20018;-90
2021/12/04 17:11:47;;;;;;;139.75;36.03;;;;;;;;;;6042960;23;20025;-91
2021/12/04 17:14:14;;;;;;;131.70;35.83;;;;;;;;;;6042687;23;20060;-90
2021/12/04 17:16:41;;;;;;;148.85;36.55;;;;;;;;;;6042647;23;20029;-91
2021/12/04 17:19:09;;;;;;;117.35;33.95;;;;;;;;;;6043417;23;20018;-91
2021/12/04 17:21:38;;;;;;;134.55;34.67;;;;;;;;;;6043135;23;20309;-91
2021/12/04 17:24:05;;;;;;;129.15;35.42;;;;;;;;;;6066805;23;20090;-91
2021/12/04 17:26:31;;;;;;;101.78;31.05;;;;;;;;;;6066940;23;20019;-91
2021/12/04 17:28:57;;;;;;;121.30;34.70;;;;;;;;;;6042325;23;20018;-91
2021/12/04 17:31:24;;;;;;;121.68;33.80;;;;;;;;;;6042877;23;20030;-91
2021/12/04 17:33:54;;;;;;;113.95;33.42;;;;;;;;;;6042768;23;20022;-91
2021/12/04 17:36:21;;;;;;;102.10;30.52;;;;;;;;;;6043253;23;20030;-91
2021/12/04 17:38:47;;;;;;;86.03;28.27;;;;;;;;;;6042451;23;20455;-91
2021/12/04 17:41:16;;;;;;;78.88;26.65;;;;;;;;;;6043029;23;20332;-91
2021/12/04 17:43:42;;;;;;;82.90;26.83;;;;;;;;;;6042020;23;20058;-91
2021/12/04 17:46:09;;;;;;;72.38;25.65;;;;;;;;;;6042711;23;20109;-91